sensor_id;sensor_type;location;lat;lon;timestamp;P1;durP1;ratioP1;P2;durP2;ratioP2
4214;SDS011;2121;48.062;7.850;2023-02-15T00:01:55;50.33;;;17.37;;
4214;SDS011;2121;48.062;7.850;2023-02-15T00:04:21;58.60;;;16.70;;
4214;SDS011;2121;48.062;7.850;2023-02-15T00:06:49;48.83;;;16.53;;
4214;SDS011;2121;48.062;7.850;2023-02-15T00:09:15;72.33;;;19.33;;
4214;SDS011;2121;48.062;7.850;2023-02-15T00:11:41;43.33;;;14.97;;
4214;SDS011;2121;48.062;7.850;2023-02-15T00:14:10;48.77;;;17.30;;
4214;SDS011;2121;48.062;7.850;2023-02-15T00:16:45;85.23;;;18.70;;
4214;SDS011;2121;48.062;7.850;2023-02-15T00:19:12;73.97;;;18.80;;
4214;SDS011;2121;48.062;7.850;2023-02-15T00:21:41;38.13;;;16.00;;
4214;SDS011;2121;48.062;7.850;2023-02-15T00:24:08;51.40;;;14.73;;
4214;SDS011;2121;48.062;7.850;2023-02-15T00:26:37;66.47;;;17.67;;
4214;SDS011;2121;48.062;7.850;2023-02-15T00:29:04;56.87;;;17.90;;
4214;SDS011;2121;48.062;7.850;2023-02-15T00:31:31;40.13;;;17.43;;
4214;SDS011;2121;48.062;7.850;2023-02-15T00:34:17;54.97;;;15.77;;
4214;SDS011;2121;48.062;7.850;2023-02-15T00:36:46;44.67;;;15.87;;
4214;SDS011;2121;48.062;7.850;2023-02-15T00:39:12;30.17;;;13.90;;
4214;SDS011;2121;48.062;7.850;2023-02-15T00:41:39;83.97;;;17.17;;
4214;SDS011;2121;48.062;7.850;2023-02-15T00:44:06;33.53;;;16.00;;
4214;SDS011;2121;48.062;7.850;2023-02-15T00:46:33;146.83;;;23.57;;
4214;SDS011;2121;48.062;7.850;2023-02-15T00:48:59;61.20;;;16.40;;
4214;SDS011;2121;48.062;7.850;2023-02-15T00:51:25;40.67;;;15.87;;
4214;SDS011;2121;48.062;7.850;2023-02-15T00:53:51;54.00;;;15.87;;
4214;SDS011;2121;48.062;7.850;2023-02-15T00:56:17;57.57;;;16.03;;
4214;SDS011;2121;48.062;7.850;2023-02-15T00:58:43;74.93;;;16.03;;
4214;SDS011;2121;48.062;7.850;2023-02-15T01:01:10;50.67;;;16.70;;
4214;SDS011;2121;48.062;7.850;2023-02-15T01:03:39;63.30;;;17.00;;
4214;SDS011;2121;48.062;7.850;2023-02-15T01:06:08;27.40;;;14.97;;
4214;SDS011;2121;48.062;7.850;2023-02-15T01:08:38;68.60;;;15.17;;
4214;SDS011;2121;48.062;7.850;2023-02-15T01:11:07;47.33;;;16.90;;
4214;SDS011;2121;48.062;7.850;2023-02-15T01:13:47;37.90;;;14.67;;
4214;SDS011;2121;48.062;7.850;2023-02-15T01:16:14;40.40;;;15.93;;
4214;SDS011;2121;48.062;7.850;2023-02-15T01:18:40;35.07;;;16.00;;
4214;SDS011;2121;48.062;7.850;2023-02-15T01:21:13;30.20;;;15.00;;
4214;SDS011;2121;48.062;7.850;2023-02-15T01:23:42;72.83;;;16.53;;
4214;SDS011;2121;48.062;7.850;2023-02-15T01:26:08;23.00;;;14.40;;
4214;SDS011;2121;48.062;7.850;2023-02-15T01:28:35;26.90;;;14.60;;
4214;SDS011;2121;48.062;7.850;2023-02-15T01:31:05;27.23;;;13.93;;
4214;SDS011;2121;48.062;7.850;2023-02-15T01:33:37;39.50;;;14.50;;
4214;SDS011;2121;48.062;7.850;2023-02-15T01:36:03;50.03;;;16.30;;
4214;SDS011;2121;48.062;7.850;2023-02-15T01:38:30;29.10;;;14.30;;
4214;SDS011;2121;48.062;7.850;2023-02-15T01:40:55;78.27;;;16.83;;
4214;SDS011;2121;48.062;7.850;2023-02-15T01:43:41;20.60;;;13.77;;
4214;SDS011;2121;48.062;7.850;2023-02-15T01:46:10;33.20;;;16.63;;
4214;SDS011;2121;48.062;7.850;2023-02-15T01:48:50;26.23;;;15.00;;
4214;SDS011;2121;48.062;7.850;2023-02-15T01:51:23;28.63;;;17.47;;
4214;SDS011;2121;48.062;7.850;2023-02-15T01:54:38;38.30;;;14.57;;
4214;SDS011;2121;48.062;7.850;2023-02-15T01:56:44;74.80;;;16.50;;
4214;SDS011;2121;48.062;7.850;2023-02-15T01:59:13;47.90;;;16.00;;
4214;SDS011;2121;48.062;7.850;2023-02-15T02:01:44;36.67;;;15.63;;
4214;SDS011;2121;48.062;7.850;2023-02-15T02:04:13;33.67;;;13.97;;
4214;SDS011;2121;48.062;7.850;2023-02-15T02:06:49;47.73;;;16.40;;
4214;SDS011;2121;48.062;7.850;2023-02-15T02:09:16;32.90;;;13.47;;
4214;SDS011;2121;48.062;7.850;2023-02-15T02:11:42;29.80;;;14.00;;
4214;SDS011;2121;48.062;7.850;2023-02-15T02:14:11;38.97;;;15.47;;
4214;SDS011;2121;48.062;7.850;2023-02-15T02:16:52;36.40;;;15.23;;
4214;SDS011;2121;48.062;7.850;2023-02-15T02:34:46;61.30;;;14.43;;
4214;SDS011;2121;48.062;7.850;2023-02-15T02:43:21;16.43;;;12.60;;
4214;SDS011;2121;48.062;7.850;2023-02-15T02:45:58;80.53;;;16.40;;
4214;SDS011;2121;48.062;7.850;2023-02-15T02:48:32;54.13;;;13.90;;
4214;SDS011;2121;48.062;7.850;2023-02-15T02:50:58;128.57;;;20.10;;
4214;SDS011;2121;48.062;7.850;2023-02-15T02:53:25;60.87;;;15.13;;
4214;SDS011;2121;48.062;7.850;2023-02-15T02:56:29;125.60;;;20.77;;
4214;SDS011;2121;48.062;7.850;2023-02-15T02:59:13;62.60;;;15.57;;
4214;SDS011;2121;48.062;7.850;2023-02-15T03:01:59;129.00;;;17.87;;
4214;SDS011;2121;48.062;7.850;2023-02-15T03:04:35;33.90;;;14.27;;
4214;SDS011;2121;48.062;7.850;2023-02-15T03:07:17;128.60;;;19.13;;
4214;SDS011;2121;48.062;7.850;2023-02-15T03:09:48;116.00;;;16.47;;
4214;SDS011;2121;48.062;7.850;2023-02-15T03:12:21;128.70;;;21.03;;
4214;SDS011;2121;48.062;7.850;2023-02-15T03:15:16;120.77;;;21.00;;
4214;SDS011;2121;48.062;7.850;2023-02-15T03:17:49;51.80;;;15.90;;
4214;SDS011;2121;48.062;7.850;2023-02-15T03:20:24;63.00;;;16.50;;
4214;SDS011;2121;48.062;7.850;2023-02-15T03:23:00;112.43;;;23.37;;
4214;SDS011;2121;48.062;7.850;2023-02-15T03:25:33;92.73;;;16.10;;
4214;SDS011;2121;48.062;7.850;2023-02-15T03:28:11;91.43;;;17.90;;
4214;SDS011;2121;48.062;7.850;2023-02-15T03:30:45;51.20;;;16.87;;
4214;SDS011;2121;48.062;7.850;2023-02-15T03:33:14;38.33;;;15.23;;
4214;SDS011;2121;48.062;7.850;2023-02-15T03:35:45;53.07;;;14.50;;
4214;SDS011;2121;48.062;7.850;2023-02-15T03:38:33;80.70;;;15.57;;
4214;SDS011;2121;48.062;7.850;2023-02-15T03:41:10;131.50;;;20.87;;
4214;SDS011;2121;48.062;7.850;2023-02-15T03:43:48;101.63;;;22.40;;
4214;SDS011;2121;48.062;7.850;2023-02-15T03:46:45;44.40;;;13.60;;
4214;SDS011;2121;48.062;7.850;2023-02-15T03:49:20;64.23;;;14.90;;
4214;SDS011;2121;48.062;7.850;2023-02-15T03:51:52;49.23;;;15.13;;
4214;SDS011;2121;48.062;7.850;2023-02-15T03:54:27;41.97;;;15.60;;
4214;SDS011;2121;48.062;7.850;2023-02-15T04:05:46;89.10;;;17.30;;
4214;SDS011;2121;48.062;7.850;2023-02-15T04:08:12;50.10;;;15.87;;
4214;SDS011;2121;48.062;7.850;2023-02-15T04:10:38;37.10;;;14.30;;
4214;SDS011;2121;48.062;7.850;2023-02-15T04:13:29;73.50;;;15.10;;
4214;SDS011;2121;48.062;7.850;2023-02-15T04:15:57;30.17;;;13.10;;
4214;SDS011;2121;48.062;7.850;2023-02-15T04:18:32;40.57;;;13.30;;
4214;SDS011;2121;48.062;7.850;2023-02-15T04:21:24;45.67;;;13.67;;
4214;SDS011;2121;48.062;7.850;2023-02-15T04:24:12;26.60;;;12.87;;
4214;SDS011;2121;48.062;7.850;2023-02-15T04:26:57;68.83;;;19.07;;
4214;SDS011;2121;48.062;7.850;2023-02-15T04:29:24;90.50;;;14.93;;
4214;SDS011;2121;48.062;7.850;2023-02-15T04:31:51;65.97;;;15.30;;
4214;SDS011;2121;48.062;7.850;2023-02-15T04:34:19;69.93;;;14.53;;
4214;SDS011;2121;48.062;7.850;2023-02-15T04:36:44;34.70;;;14.13;;
4214;SDS011;2121;48.062;7.850;2023-02-15T04:39:13;67.70;;;17.07;;
4214;SDS011;2121;48.062;7.850;2023-02-15T04:41:40;51.50;;;14.70;;
4214;SDS011;2121;48.062;7.850;2023-02-15T04:44:06;30.80;;;13.60;;
4214;SDS011;2121;48.062;7.850;2023-02-15T04:46:32;95.77;;;17.90;;
4214;SDS011;2121;48.062;7.850;2023-02-15T04:48:58;103.57;;;16.57;;
4214;SDS011;2121;48.062;7.850;2023-02-15T04:51:23;101.80;;;15.77;;
4214;SDS011;2121;48.062;7.850;2023-02-15T04:53:49;29.40;;;13.87;;
4214;SDS011;2121;48.062;7.850;2023-02-15T04:56:17;81.20;;;17.47;;
4214;SDS011;2121;48.062;7.850;2023-02-15T04:58:44;155.60;;;18.33;;
4214;SDS011;2121;48.062;7.850;2023-02-15T05:01:10;32.63;;;14.53;;
4214;SDS011;2121;48.062;7.850;2023-02-15T05:03:36;86.57;;;17.77;;
4214;SDS011;2121;48.062;7.850;2023-02-15T05:06:02;60.07;;;16.70;;
4214;SDS011;2121;48.062;7.850;2023-02-15T05:08:28;96.47;;;16.13;;
4214;SDS011;2121;48.062;7.850;2023-02-15T05:10:55;65.37;;;16.30;;
4214;SDS011;2121;48.062;7.850;2023-02-15T05:13:21;37.60;;;12.70;;
4214;SDS011;2121;48.062;7.850;2023-02-15T05:15:50;22.40;;;12.70;;
4214;SDS011;2121;48.062;7.850;2023-02-15T05:18:17;59.67;;;13.37;;
4214;SDS011;2121;48.062;7.850;2023-02-15T05:20:45;74.73;;;16.47;;
4214;SDS011;2121;48.062;7.850;2023-02-15T05:23:11;61.07;;;15.63;;
4214;SDS011;2121;48.062;7.850;2023-02-15T05:25:37;25.47;;;13.23;;
4214;SDS011;2121;48.062;7.850;2023-02-15T05:28:22;56.27;;;14.30;;
4214;SDS011;2121;48.062;7.850;2023-02-15T05:30:58;44.23;;;13.43;;
4214;SDS011;2121;48.062;7.850;2023-02-15T05:33:35;44.17;;;14.80;;
4214;SDS011;2121;48.062;7.850;2023-02-15T05:36:02;55.37;;;14.27;;
4214;SDS011;2121;48.062;7.850;2023-02-15T05:38:28;26.47;;;12.60;;
4214;SDS011;2121;48.062;7.850;2023-02-15T05:40:55;43.77;;;13.67;;
4214;SDS011;2121;48.062;7.850;2023-02-15T05:43:21;63.87;;;16.00;;
4214;SDS011;2121;48.062;7.850;2023-02-15T05:45:51;68.10;;;18.83;;
4214;SDS011;2121;48.062;7.850;2023-02-15T05:48:19;84.27;;;16.13;;
4214;SDS011;2121;48.062;7.850;2023-02-15T05:50:56;61.30;;;14.40;;
4214;SDS011;2121;48.062;7.850;2023-02-15T05:53:38;39.90;;;14.33;;
4214;SDS011;2121;48.062;7.850;2023-02-15T05:56:05;58.50;;;15.47;;
4214;SDS011;2121;48.062;7.850;2023-02-15T05:58:37;67.80;;;14.23;;
4214;SDS011;2121;48.062;7.850;2023-02-15T06:01:11;63.93;;;15.50;;
4214;SDS011;2121;48.062;7.850;2023-02-15T06:03:42;55.17;;;14.80;;
4214;SDS011;2121;48.062;7.850;2023-02-15T06:06:09;66.30;;;14.97;;
4214;SDS011;2121;48.062;7.850;2023-02-15T06:08:36;36.00;;;12.80;;
4214;SDS011;2121;48.062;7.850;2023-02-15T06:11:03;44.33;;;13.97;;
4214;SDS011;2121;48.062;7.850;2023-02-15T06:13:29;47.67;;;13.77;;
4214;SDS011;2121;48.062;7.850;2023-02-15T06:15:56;35.73;;;13.57;;
4214;SDS011;2121;48.062;7.850;2023-02-15T06:18:22;54.77;;;12.50;;
4214;SDS011;2121;48.062;7.850;2023-02-15T06:20:48;54.10;;;13.10;;
4214;SDS011;2121;48.062;7.850;2023-02-15T06:23:14;32.60;;;13.40;;
4214;SDS011;2121;48.062;7.850;2023-02-15T06:25:40;61.43;;;15.30;;
4214;SDS011;2121;48.062;7.850;2023-02-15T06:28:06;57.23;;;14.33;;
4214;SDS011;2121;48.062;7.850;2023-02-15T06:30:32;34.10;;;15.07;;
4214;SDS011;2121;48.062;7.850;2023-02-15T06:32:58;55.63;;;16.17;;
4214;SDS011;2121;48.062;7.850;2023-02-15T06:35:24;38.43;;;15.20;;
4214;SDS011;2121;48.062;7.850;2023-02-15T06:37:49;39.23;;;13.70;;
4214;SDS011;2121;48.062;7.850;2023-02-15T06:40:15;51.73;;;13.90;;
4214;SDS011;2121;48.062;7.850;2023-02-15T06:42:41;31.90;;;13.13;;
4214;SDS011;2121;48.062;7.850;2023-02-15T06:45:08;32.83;;;13.83;;
4214;SDS011;2121;48.062;7.850;2023-02-15T06:47:35;18.07;;;12.63;;
4214;SDS011;2121;48.062;7.850;2023-02-15T06:50:02;66.73;;;13.83;;
4214;SDS011;2121;48.062;7.850;2023-02-15T06:52:32;23.90;;;13.13;;
4214;SDS011;2121;48.062;7.850;2023-02-15T06:54:58;98.67;;;15.00;;
4214;SDS011;2121;48.062;7.850;2023-02-15T06:57:24;42.33;;;12.37;;
4214;SDS011;2121;48.062;7.850;2023-02-15T06:59:49;53.73;;;14.90;;
4214;SDS011;2121;48.062;7.850;2023-02-15T07:02:15;42.20;;;12.33;;
4214;SDS011;2121;48.062;7.850;2023-02-15T07:04:41;37.00;;;13.03;;
4214;SDS011;2121;48.062;7.850;2023-02-15T07:07:10;36.37;;;13.53;;
4214;SDS011;2121;48.062;7.850;2023-02-15T07:09:36;38.33;;;13.97;;
4214;SDS011;2121;48.062;7.850;2023-02-15T07:12:03;30.83;;;12.60;;
4214;SDS011;2121;48.062;7.850;2023-02-15T07:14:48;30.53;;;11.70;;
4214;SDS011;2121;48.062;7.850;2023-02-15T07:17:14;120.33;;;17.33;;
4214;SDS011;2121;48.062;7.850;2023-02-15T07:19:39;42.87;;;13.47;;
4214;SDS011;2121;48.062;7.850;2023-02-15T07:22:05;25.77;;;12.93;;
4214;SDS011;2121;48.062;7.850;2023-02-15T07:24:31;29.07;;;12.57;;
4214;SDS011;2121;48.062;7.850;2023-02-15T07:26:57;41.97;;;12.50;;
4214;SDS011;2121;48.062;7.850;2023-02-15T07:29:22;28.97;;;12.47;;
4214;SDS011;2121;48.062;7.850;2023-02-15T07:31:49;41.90;;;14.77;;
4214;SDS011;2121;48.062;7.850;2023-02-15T07:34:15;54.87;;;13.60;;
4214;SDS011;2121;48.062;7.850;2023-02-15T07:36:41;28.57;;;13.67;;
4214;SDS011;2121;48.062;7.850;2023-02-15T07:39:09;54.40;;;15.60;;
4214;SDS011;2121;48.062;7.850;2023-02-15T07:41:35;18.33;;;12.20;;
4214;SDS011;2121;48.062;7.850;2023-02-15T07:44:01;37.20;;;12.83;;
4214;SDS011;2121;48.062;7.850;2023-02-15T07:46:27;22.43;;;13.87;;
4214;SDS011;2121;48.062;7.850;2023-02-15T07:48:53;55.77;;;15.60;;
4214;SDS011;2121;48.062;7.850;2023-02-15T07:51:19;45.03;;;14.40;;
4214;SDS011;2121;48.062;7.850;2023-02-15T07:53:45;25.60;;;12.30;;
4214;SDS011;2121;48.062;7.850;2023-02-15T07:56:12;21.07;;;12.87;;
4214;SDS011;2121;48.062;7.850;2023-02-15T07:58:39;58.63;;;14.17;;
4214;SDS011;2121;48.062;7.850;2023-02-15T08:01:18;20.83;;;11.93;;
4214;SDS011;2121;48.062;7.850;2023-02-15T08:03:49;28.83;;;14.23;;
4214;SDS011;2121;48.062;7.850;2023-02-15T08:06:15;26.57;;;12.77;;
4214;SDS011;2121;48.062;7.850;2023-02-15T08:08:41;23.87;;;12.53;;
4214;SDS011;2121;48.062;7.850;2023-02-15T08:19:02;35.87;;;15.30;;
4214;SDS011;2121;48.062;7.850;2023-02-15T08:21:35;22.07;;;13.60;;
4214;SDS011;2121;48.062;7.850;2023-02-15T08:24:05;21.80;;;13.03;;
4214;SDS011;2121;48.062;7.850;2023-02-15T08:26:33;41.33;;;14.60;;
4214;SDS011;2121;48.062;7.850;2023-02-15T08:29:00;39.73;;;14.70;;
4214;SDS011;2121;48.062;7.850;2023-02-15T08:31:26;37.47;;;14.10;;
4214;SDS011;2121;48.062;7.850;2023-02-15T08:33:53;60.33;;;16.10;;
4214;SDS011;2121;48.062;7.850;2023-02-15T08:36:22;30.33;;;12.90;;
4214;SDS011;2121;48.062;7.850;2023-02-15T08:38:50;31.93;;;12.50;;
4214;SDS011;2121;48.062;7.850;2023-02-15T08:41:23;16.37;;;12.47;;
4214;SDS011;2121;48.062;7.850;2023-02-15T08:43:57;23.93;;;14.67;;
4214;SDS011;2121;48.062;7.850;2023-02-15T08:46:26;56.30;;;18.00;;
4214;SDS011;2121;48.062;7.850;2023-02-15T08:48:55;61.07;;;14.20;;
4214;SDS011;2121;48.062;7.850;2023-02-15T08:51:26;34.07;;;13.77;;
4214;SDS011;2121;48.062;7.850;2023-02-15T08:53:58;60.60;;;15.03;;
4214;SDS011;2121;48.062;7.850;2023-02-15T08:56:27;26.00;;;13.23;;
4214;SDS011;2121;48.062;7.850;2023-02-15T08:58:57;18.80;;;12.17;;
4214;SDS011;2121;48.062;7.850;2023-02-15T09:01:25;23.70;;;14.40;;
4214;SDS011;2121;48.062;7.850;2023-02-15T09:04:04;24.17;;;13.97;;
4214;SDS011;2121;48.062;7.850;2023-02-15T09:06:33;36.97;;;15.30;;
4214;SDS011;2121;48.062;7.850;2023-02-15T09:09:01;33.17;;;14.90;;
4214;SDS011;2121;48.062;7.850;2023-02-15T09:11:29;30.93;;;14.67;;
4214;SDS011;2121;48.062;7.850;2023-02-15T09:13:59;30.13;;;15.00;;
4214;SDS011;2121;48.062;7.850;2023-02-15T09:16:29;36.70;;;14.13;;
4214;SDS011;2121;48.062;7.850;2023-02-15T09:18:57;32.60;;;13.77;;
4214;SDS011;2121;48.062;7.850;2023-02-15T09:21:24;21.27;;;13.37;;
4214;SDS011;2121;48.062;7.850;2023-02-15T09:23:52;30.47;;;15.40;;
4214;SDS011;2121;48.062;7.850;2023-02-15T09:26:26;28.60;;;15.10;;
4214;SDS011;2121;48.062;7.850;2023-02-15T09:28:55;56.93;;;15.73;;
4214;SDS011;2121;48.062;7.850;2023-02-15T09:31:26;44.73;;;15.03;;
4214;SDS011;2121;48.062;7.850;2023-02-15T09:33:54;30.33;;;15.50;;
4214;SDS011;2121;48.062;7.850;2023-02-15T09:36:25;24.70;;;14.23;;
4214;SDS011;2121;48.062;7.850;2023-02-15T09:39:08;19.60;;;14.30;;
4214;SDS011;2121;48.062;7.850;2023-02-15T09:54:13;22.40;;;13.07;;
4214;SDS011;2121;48.062;7.850;2023-02-15T09:56:46;24.90;;;14.60;;
4214;SDS011;2121;48.062;7.850;2023-02-15T10:14:09;22.70;;;13.80;;
4214;SDS011;2121;48.062;7.850;2023-02-15T10:28:16;21.13;;;14.30;;
4214;SDS011;2121;48.062;7.850;2023-02-15T10:30:52;18.70;;;13.57;;
4214;SDS011;2121;48.062;7.850;2023-02-15T10:44:33;19.97;;;13.67;;
4214;SDS011;2121;48.062;7.850;2023-02-15T10:47:37;23.43;;;13.53;;
4214;SDS011;2121;48.062;7.850;2023-02-15T10:50:49;25.37;;;15.03;;
4214;SDS011;2121;48.062;7.850;2023-02-15T10:56:36;23.70;;;13.87;;
4214;SDS011;2121;48.062;7.850;2023-02-15T11:08:10;21.60;;;15.33;;
4214;SDS011;2121;48.062;7.850;2023-02-15T11:10:44;21.97;;;14.47;;
4214;SDS011;2121;48.062;7.850;2023-02-15T11:13:21;19.97;;;14.70;;
4214;SDS011;2121;48.062;7.850;2023-02-15T11:15:56;21.80;;;15.80;;
4214;SDS011;2121;48.062;7.850;2023-02-15T11:18:36;22.20;;;14.80;;
4214;SDS011;2121;48.062;7.850;2023-02-15T11:21:08;21.23;;;14.33;;
4214;SDS011;2121;48.062;7.850;2023-02-15T11:23:45;19.00;;;14.07;;
4214;SDS011;2121;48.062;7.850;2023-02-15T11:29:10;22.03;;;12.43;;
4214;SDS011;2121;48.062;7.850;2023-02-15T11:32:18;17.57;;;13.33;;
4214;SDS011;2121;48.062;7.850;2023-02-15T11:40:49;22.03;;;16.00;;
4214;SDS011;2121;48.062;7.850;2023-02-15T11:46:23;24.53;;;13.20;;
4214;SDS011;2121;48.062;7.850;2023-02-15T11:48:49;19.93;;;12.23;;
4214;SDS011;2121;48.062;7.850;2023-02-15T11:51:16;17.80;;;13.10;;
4214;SDS011;2121;48.062;7.850;2023-02-15T11:53:45;21.93;;;13.80;;
4214;SDS011;2121;48.062;7.850;2023-02-15T11:56:22;16.77;;;11.67;;
4214;SDS011;2121;48.062;7.850;2023-02-15T12:04:13;22.17;;;13.20;;
4214;SDS011;2121;48.062;7.850;2023-02-15T12:06:55;27.47;;;15.77;;
4214;SDS011;2121;48.062;7.850;2023-02-15T12:09:43;19.50;;;13.60;;
4214;SDS011;2121;48.062;7.850;2023-02-15T12:12:31;23.30;;;14.70;;
4214;SDS011;2121;48.062;7.850;2023-02-15T12:15:00;20.03;;;12.97;;
4214;SDS011;2121;48.062;7.850;2023-02-15T12:17:50;15.90;;;11.70;;
4214;SDS011;2121;48.062;7.850;2023-02-15T12:22:53;23.77;;;14.53;;
4214;SDS011;2121;48.062;7.850;2023-02-15T12:25:35;16.20;;;11.70;;
4214;SDS011;2121;48.062;7.850;2023-02-15T12:28:18;17.17;;;12.73;;
4214;SDS011;2121;48.062;7.850;2023-02-15T12:30:50;15.90;;;11.30;;
4214;SDS011;2121;48.062;7.850;2023-02-15T12:33:33;16.87;;;11.57;;
4214;SDS011;2121;48.062;7.850;2023-02-15T12:36:03;18.83;;;12.67;;
4214;SDS011;2121;48.062;7.850;2023-02-15T12:38:39;16.67;;;12.23;;
4214;SDS011;2121;48.062;7.850;2023-02-15T12:44:02;27.27;;;13.27;;
4214;SDS011;2121;48.062;7.850;2023-02-15T12:49:27;21.70;;;14.93;;
4214;SDS011;2121;48.062;7.850;2023-02-15T12:52:01;19.50;;;13.53;;
4214;SDS011;2121;48.062;7.850;2023-02-15T12:54:44;19.80;;;13.87;;
4214;SDS011;2121;48.062;7.850;2023-02-15T12:57:13;17.73;;;13.03;;
4214;SDS011;2121;48.062;7.850;2023-02-15T12:59:59;18.33;;;14.00;;
4214;SDS011;2121;48.062;7.850;2023-02-15T13:02:57;22.47;;;14.73;;
4214;SDS011;2121;48.062;7.850;2023-02-15T13:05:35;17.13;;;13.43;;
4214;SDS011;2121;48.062;7.850;2023-02-15T13:08:14;20.93;;;15.10;;
4214;SDS011;2121;48.062;7.850;2023-02-15T13:10:56;19.60;;;13.50;;
4214;SDS011;2121;48.062;7.850;2023-02-15T13:13:29;19.73;;;14.70;;
4214;SDS011;2121;48.062;7.850;2023-02-15T13:16:04;26.93;;;13.77;;
4214;SDS011;2121;48.062;7.850;2023-02-15T13:18:36;18.67;;;12.83;;
4214;SDS011;2121;48.062;7.850;2023-02-15T13:21:14;17.70;;;12.40;;
4214;SDS011;2121;48.062;7.850;2023-02-15T13:23:46;18.53;;;12.70;;
4214;SDS011;2121;48.062;7.850;2023-02-15T13:26:35;18.90;;;12.40;;
4214;SDS011;2121;48.062;7.850;2023-02-15T13:29:05;13.93;;;11.37;;
4214;SDS011;2121;48.062;7.850;2023-02-15T13:31:40;16.37;;;11.80;;
4214;SDS011;2121;48.062;7.850;2023-02-15T13:34:16;15.97;;;12.13;;
4214;SDS011;2121;48.062;7.850;2023-02-15T13:36:50;16.13;;;13.10;;
4214;SDS011;2121;48.062;7.850;2023-02-15T13:39:54;16.47;;;11.90;;
4214;SDS011;2121;48.062;7.850;2023-02-15T13:42:32;17.60;;;12.03;;
4214;SDS011;2121;48.062;7.850;2023-02-15T13:48:24;18.03;;;11.23;;
4214;SDS011;2121;48.062;7.850;2023-02-15T13:53:52;14.80;;;11.97;;
4214;SDS011;2121;48.062;7.850;2023-02-15T14:05:14;23.30;;;13.53;;
4214;SDS011;2121;48.062;7.850;2023-02-15T14:10:53;17.07;;;12.43;;
4214;SDS011;2121;48.062;7.850;2023-02-15T14:18:56;16.27;;;12.73;;
4214;SDS011;2121;48.062;7.850;2023-02-15T14:21:30;18.47;;;12.60;;
4214;SDS011;2121;48.062;7.850;2023-02-15T14:31:54;16.10;;;12.43;;
4214;SDS011;2121;48.062;7.850;2023-02-15T14:34:27;17.93;;;12.97;;
4214;SDS011;2121;48.062;7.850;2023-02-15T14:37:06;15.70;;;12.10;;
4214;SDS011;2121;48.062;7.850;2023-02-15T14:56:45;18.30;;;12.70;;
4214;SDS011;2121;48.062;7.850;2023-02-15T15:04:45;24.67;;;15.23;;
4214;SDS011;2121;48.062;7.850;2023-02-15T15:07:44;18.63;;;13.80;;
4214;SDS011;2121;48.062;7.850;2023-02-15T15:12:57;19.60;;;13.90;;
4214;SDS011;2121;48.062;7.850;2023-02-15T15:15:48;19.47;;;13.80;;
4214;SDS011;2121;48.062;7.850;2023-02-15T15:21:11;19.80;;;14.60;;
4214;SDS011;2121;48.062;7.850;2023-02-15T15:50:27;24.20;;;15.83;;
4214;SDS011;2121;48.062;7.850;2023-02-15T15:52:54;20.53;;;15.83;;
4214;SDS011;2121;48.062;7.850;2023-02-15T15:55:24;28.63;;;18.67;;
4214;SDS011;2121;48.062;7.850;2023-02-15T15:57:54;25.00;;;17.40;;
4214;SDS011;2121;48.062;7.850;2023-02-15T16:00:36;25.53;;;16.13;;
4214;SDS011;2121;48.062;7.850;2023-02-15T16:03:14;26.93;;;17.83;;
4214;SDS011;2121;48.062;7.850;2023-02-15T16:05:51;25.30;;;17.83;;
4214;SDS011;2121;48.062;7.850;2023-02-15T16:10:54;33.90;;;21.37;;
4214;SDS011;2121;48.062;7.850;2023-02-15T16:13:20;39.63;;;20.80;;
4214;SDS011;2121;48.062;7.850;2023-02-15T16:15:46;32.30;;;21.90;;
4214;SDS011;2121;48.062;7.850;2023-02-15T16:18:17;40.20;;;26.40;;
4214;SDS011;2121;48.062;7.850;2023-02-15T16:21:12;35.10;;;22.37;;
4214;SDS011;2121;48.062;7.850;2023-02-15T16:24:07;40.77;;;23.47;;
4214;SDS011;2121;48.062;7.850;2023-02-15T16:27:17;38.73;;;23.13;;
4214;SDS011;2121;48.062;7.850;2023-02-15T16:29:30;45.57;;;26.00;;
4214;SDS011;2121;48.062;7.850;2023-02-15T16:32:02;40.90;;;25.47;;
4214;SDS011;2121;48.062;7.850;2023-02-15T16:34:51;40.40;;;25.93;;
4214;SDS011;2121;48.062;7.850;2023-02-15T16:37:26;56.10;;;35.00;;
4214;SDS011;2121;48.062;7.850;2023-02-15T16:39:57;45.37;;;30.17;;
4214;SDS011;2121;48.062;7.850;2023-02-15T16:42:23;47.87;;;29.73;;
4214;SDS011;2121;48.062;7.850;2023-02-15T16:47:31;50.80;;;31.23;;
4214;SDS011;2121;48.062;7.850;2023-02-15T16:50:02;43.20;;;27.97;;
4214;SDS011;2121;48.062;7.850;2023-02-15T16:52:30;35.20;;;22.97;;
4214;SDS011;2121;48.062;7.850;2023-02-15T16:54:57;45.67;;;26.50;;
4214;SDS011;2121;48.062;7.850;2023-02-15T16:57:27;43.80;;;26.00;;
4214;SDS011;2121;48.062;7.850;2023-02-15T17:00:04;52.53;;;30.67;;
4214;SDS011;2121;48.062;7.850;2023-02-15T17:02:52;50.47;;;28.33;;
4214;SDS011;2121;48.062;7.850;2023-02-15T17:05:24;102.80;;;48.17;;
4214;SDS011;2121;48.062;7.850;2023-02-15T17:10:46;97.37;;;50.93;;
4214;SDS011;2121;48.062;7.850;2023-02-15T17:16:29;65.03;;;37.57;;
4214;SDS011;2121;48.062;7.850;2023-02-15T17:19:00;51.00;;;31.20;;
4214;SDS011;2121;48.062;7.850;2023-02-15T17:21:30;51.87;;;29.40;;
4214;SDS011;2121;48.062;7.850;2023-02-15T17:23:59;48.50;;;30.17;;
4214;SDS011;2121;48.062;7.850;2023-02-15T17:26:32;58.47;;;33.00;;
4214;SDS011;2121;48.062;7.850;2023-02-15T17:31:56;58.13;;;32.20;;
4214;SDS011;2121;48.062;7.850;2023-02-15T17:39:52;41.10;;;25.80;;
4214;SDS011;2121;48.062;7.850;2023-02-15T17:42:18;45.20;;;25.23;;
4214;SDS011;2121;48.062;7.850;2023-02-15T17:44:44;38.20;;;24.50;;
4214;SDS011;2121;48.062;7.850;2023-02-15T17:47:14;48.33;;;27.93;;
4214;SDS011;2121;48.062;7.850;2023-02-15T17:49:44;42.43;;;24.87;;
4214;SDS011;2121;48.062;7.850;2023-02-15T17:52:13;53.03;;;30.70;;
4214;SDS011;2121;48.062;7.850;2023-02-15T17:54:41;53.13;;;30.60;;
4214;SDS011;2121;48.062;7.850;2023-02-15T17:57:25;56.13;;;31.20;;
4214;SDS011;2121;48.062;7.850;2023-02-15T17:59:52;48.90;;;27.00;;
4214;SDS011;2121;48.062;7.850;2023-02-15T18:02:37;48.07;;;27.20;;
4214;SDS011;2121;48.062;7.850;2023-02-15T18:05:22;54.80;;;29.37;;
4214;SDS011;2121;48.062;7.850;2023-02-15T18:08:11;61.00;;;33.47;;
4214;SDS011;2121;48.062;7.850;2023-02-15T18:11:01;46.70;;;27.87;;
4214;SDS011;2121;48.062;7.850;2023-02-15T18:13:46;52.17;;;30.37;;
4214;SDS011;2121;48.062;7.850;2023-02-15T18:16:17;59.93;;;35.67;;
4214;SDS011;2121;48.062;7.850;2023-02-15T18:18:49;60.40;;;34.57;;
4214;SDS011;2121;48.062;7.850;2023-02-15T18:21:14;64.63;;;36.90;;
4214;SDS011;2121;48.062;7.850;2023-02-15T18:23:40;63.10;;;36.53;;
4214;SDS011;2121;48.062;7.850;2023-02-15T18:26:08;63.07;;;35.00;;
4214;SDS011;2121;48.062;7.850;2023-02-15T18:28:41;53.37;;;34.40;;
4214;SDS011;2121;48.062;7.850;2023-02-15T18:31:07;55.33;;;31.77;;
4214;SDS011;2121;48.062;7.850;2023-02-15T18:33:35;50.80;;;30.50;;
4214;SDS011;2121;48.062;7.850;2023-02-15T18:36:22;61.07;;;31.90;;
4214;SDS011;2121;48.062;7.850;2023-02-15T18:38:56;55.87;;;31.60;;
4214;SDS011;2121;48.062;7.850;2023-02-15T18:41:23;54.53;;;31.07;;
4214;SDS011;2121;48.062;7.850;2023-02-15T18:43:50;48.73;;;29.07;;
4214;SDS011;2121;48.062;7.850;2023-02-15T18:46:17;54.03;;;30.13;;
4214;SDS011;2121;48.062;7.850;2023-02-15T18:48:44;52.50;;;29.43;;
4214;SDS011;2121;48.062;7.850;2023-02-15T18:51:15;62.50;;;32.63;;
4214;SDS011;2121;48.062;7.850;2023-02-15T18:53:44;61.40;;;33.93;;
4214;SDS011;2121;48.062;7.850;2023-02-15T18:56:15;60.93;;;32.50;;
4214;SDS011;2121;48.062;7.850;2023-02-15T18:58:44;51.27;;;29.93;;
4214;SDS011;2121;48.062;7.850;2023-02-15T19:01:14;58.87;;;30.80;;
4214;SDS011;2121;48.062;7.850;2023-02-15T19:03:43;52.90;;;28.80;;
4214;SDS011;2121;48.062;7.850;2023-02-15T19:06:14;47.10;;;26.70;;
4214;SDS011;2121;48.062;7.850;2023-02-15T19:08:44;50.63;;;27.63;;
4214;SDS011;2121;48.062;7.850;2023-02-15T19:11:20;52.90;;;27.30;;